sensor_id;sensor_type;location;lat;lon;timestamp;P1;durP1;ratioP1;P2;durP2;ratioP2
13347;SDS011;6743;49.934;9.138;2022-07-30T00:01:59;5.47;;;5.07;;
13347;SDS011;6743;49.934;9.138;2022-07-30T00:04:25;5.40;;;5.00;;
13347;SDS011;6743;49.934;9.138;2022-07-30T00:06:51;5.65;;;4.78;;
13347;SDS011;6743;49.934;9.138;2022-07-30T00:09:17;5.15;;;4.78;;
13347;SDS011;6743;49.934;9.138;2022-07-30T00:11:43;5.55;;;5.05;;
13347;SDS011;6743;49.934;9.138;2022-07-30T00:14:09;6.57;;;5.97;;
13347;SDS011;6743;49.934;9.138;2022-07-30T00:16:35;7.18;;;6.47;;
13347;SDS011;6743;49.934;9.138;2022-07-30T00:19:02;6.32;;;5.80;;
13347;SDS011;6743;49.934;9.138;2022-07-30T00:21:28;5.87;;;5.37;;
13347;SDS011;6743;49.934;9.138;2022-07-30T00:23:54;5.65;;;5.25;;
13347;SDS011;6743;49.934;9.138;2022-07-30T00:26:20;5.45;;;5.00;;
13347;SDS011;6743;49.934;9.138;2022-07-30T00:28:46;5.53;;;5.12;;
13347;SDS011;6743;49.934;9.138;2022-07-30T00:31:12;6.30;;;5.25;;
13347;SDS011;6743;49.934;9.138;2022-07-30T00:33:38;5.65;;;5.22;;
13347;SDS011;6743;49.934;9.138;2022-07-30T00:36:05;5.57;;;5.18;;
13347;SDS011;6743;49.934;9.138;2022-07-30T00:38:31;5.40;;;5.00;;
13347;SDS011;6743;49.934;9.138;2022-07-30T00:40:57;6.05;;;5.40;;
13347;SDS011;6743;49.934;9.138;2022-07-30T00:43:23;6.30;;;5.80;;
13347;SDS011;6743;49.934;9.138;2022-07-30T00:45:49;6.20;;;5.70;;
13347;SDS011;6743;49.934;9.138;2022-07-30T00:48:15;6.30;;;5.80;;
13347;SDS011;6743;49.934;9.138;2022-07-30T00:50:41;5.32;;;4.93;;
13347;SDS011;6743;49.934;9.138;2022-07-30T00:53:08;6.37;;;5.87;;
13347;SDS011;6743;49.934;9.138;2022-07-30T00:55:34;6.65;;;6.07;;
13347;SDS011;6743;49.934;9.138;2022-07-30T00:58:00;6.30;;;5.70;;
13347;SDS011;6743;49.934;9.138;2022-07-30T01:00:26;6.22;;;5.82;;
13347;SDS011;6743;49.934;9.138;2022-07-30T01:02:52;6.28;;;5.57;;
13347;SDS011;6743;49.934;9.138;2022-07-30T01:05:18;6.40;;;5.80;;
13347;SDS011;6743;49.934;9.138;2022-07-30T01:07:45;6.90;;;6.30;;
13347;SDS011;6743;49.934;9.138;2022-07-30T01:10:12;6.85;;;6.25;;
13347;SDS011;6743;49.934;9.138;2022-07-30T01:12:40;6.32;;;5.62;;
13347;SDS011;6743;49.934;9.138;2022-07-30T01:15:08;6.03;;;5.53;;
13347;SDS011;6743;49.934;9.138;2022-07-30T01:17:35;6.07;;;5.57;;
13347;SDS011;6743;49.934;9.138;2022-07-30T01:20:02;6.68;;;6.10;;
13347;SDS011;6743;49.934;9.138;2022-07-30T01:22:39;7.10;;;6.45;;
13347;SDS011;6743;49.934;9.138;2022-07-30T01:25:15;7.10;;;6.50;;
13347;SDS011;6743;49.934;9.138;2022-07-30T01:27:53;6.47;;;5.97;;
13347;SDS011;6743;49.934;9.138;2022-07-30T01:30:24;6.30;;;5.80;;
13347;SDS011;6743;49.934;9.138;2022-07-30T01:32:53;7.20;;;6.32;;
13347;SDS011;6743;49.934;9.138;2022-07-30T01:35:21;6.32;;;5.82;;
13347;SDS011;6743;49.934;9.138;2022-07-30T01:37:49;6.28;;;5.78;;
13347;SDS011;6743;49.934;9.138;2022-07-30T01:40:18;5.80;;;5.40;;
13347;SDS011;6743;49.934;9.138;2022-07-30T01:42:45;5.90;;;5.50;;
13347;SDS011;6743;49.934;9.138;2022-07-30T01:45:19;6.45;;;5.85;;
13347;SDS011;6743;49.934;9.138;2022-07-30T01:47:48;5.72;;;5.20;;
13347;SDS011;6743;49.934;9.138;2022-07-30T01:50:16;6.00;;;5.50;;
13347;SDS011;6743;49.934;9.138;2022-07-30T01:52:44;6.00;;;5.40;;
13347;SDS011;6743;49.934;9.138;2022-07-30T01:55:13;5.97;;;5.47;;
13347;SDS011;6743;49.934;9.138;2022-07-30T01:57:42;5.75;;;5.35;;
13347;SDS011;6743;49.934;9.138;2022-07-30T02:00:11;6.75;;;6.25;;
13347;SDS011;6743;49.934;9.138;2022-07-30T02:02:38;7.35;;;6.75;;
13347;SDS011;6743;49.934;9.138;2022-07-30T02:05:05;6.78;;;6.15;;
13347;SDS011;6743;49.934;9.138;2022-07-30T02:07:34;6.93;;;6.35;;
13347;SDS011;6743;49.934;9.138;2022-07-30T02:10:04;7.35;;;6.60;;
13347;SDS011;6743;49.934;9.138;2022-07-30T02:12:35;6.93;;;6.20;;
13347;SDS011;6743;49.934;9.138;2022-07-30T02:15:09;6.62;;;6.10;;
13347;SDS011;6743;49.934;9.138;2022-07-30T02:17:41;6.90;;;6.30;;
13347;SDS011;6743;49.934;9.138;2022-07-30T02:20:10;7.43;;;6.72;;
13347;SDS011;6743;49.934;9.138;2022-07-30T02:22:38;8.00;;;7.30;;
13347;SDS011;6743;49.934;9.138;2022-07-30T02:25:08;9.27;;;8.38;;
13347;SDS011;6743;49.934;9.138;2022-07-30T02:27:38;9.68;;;8.77;;
13347;SDS011;6743;49.934;9.138;2022-07-30T02:30:08;12.45;;;10.38;;
13347;SDS011;6743;49.934;9.138;2022-07-30T02:32:36;10.48;;;9.57;;
13347;SDS011;6743;49.934;9.138;2022-07-30T02:35:08;12.18;;;10.98;;
13347;SDS011;6743;49.934;9.138;2022-07-30T02:37:40;13.65;;;12.25;;
13347;SDS011;6743;49.934;9.138;2022-07-30T02:40:08;13.82;;;12.30;;
13347;SDS011;6743;49.934;9.138;2022-07-30T02:42:37;14.40;;;12.90;;
13347;SDS011;6743;49.934;9.138;2022-07-30T02:45:04;16.10;;;14.43;;
13347;SDS011;6743;49.934;9.138;2022-07-30T02:47:32;13.62;;;12.23;;
13347;SDS011;6743;49.934;9.138;2022-07-30T02:50:00;14.82;;;13.32;;
13347;SDS011;6743;49.934;9.138;2022-07-30T02:52:27;14.87;;;13.38;;
13347;SDS011;6743;49.934;9.138;2022-07-30T02:54:56;15.40;;;13.70;;
13347;SDS011;6743;49.934;9.138;2022-07-30T02:57:25;16.15;;;14.45;;
13347;SDS011;6743;49.934;9.138;2022-07-30T02:59:53;14.98;;;13.57;;
13347;SDS011;6743;49.934;9.138;2022-07-30T03:02:21;15.02;;;13.55;;
13347;SDS011;6743;49.934;9.138;2022-07-30T03:04:48;14.50;;;13.13;;
13347;SDS011;6743;49.934;9.138;2022-07-30T03:07:17;15.38;;;13.98;;
13347;SDS011;6743;49.934;9.138;2022-07-30T03:09:45;15.40;;;13.90;;
13347;SDS011;6743;49.934;9.138;2022-07-30T03:12:12;15.40;;;13.80;;
13347;SDS011;6743;49.934;9.138;2022-07-30T03:14:39;15.52;;;14.02;;
13347;SDS011;6743;49.934;9.138;2022-07-30T03:17:05;15.10;;;13.62;;
13347;SDS011;6743;49.934;9.138;2022-07-30T03:19:34;15.73;;;14.13;;
13347;SDS011;6743;49.934;9.138;2022-07-30T03:22:03;14.80;;;13.30;;
13347;SDS011;6743;49.934;9.138;2022-07-30T03:24:31;16.55;;;14.70;;
13347;SDS011;6743;49.934;9.138;2022-07-30T03:26:59;18.05;;;14.35;;
13347;SDS011;6743;49.934;9.138;2022-07-30T03:29:27;16.85;;;15.00;;
13347;SDS011;6743;49.934;9.138;2022-07-30T03:31:55;19.20;;;15.98;;
13347;SDS011;6743;49.934;9.138;2022-07-30T03:34:22;18.20;;;15.48;;
13347;SDS011;6743;49.934;9.138;2022-07-30T03:36:48;17.33;;;15.52;;
13347;SDS011;6743;49.934;9.138;2022-07-30T03:39:15;17.50;;;15.68;;
13347;SDS011;6743;49.934;9.138;2022-07-30T03:41:42;18.65;;;16.58;;
13347;SDS011;6743;49.934;9.138;2022-07-30T03:44:10;19.75;;;15.77;;
13347;SDS011;6743;49.934;9.138;2022-07-30T03:46:36;18.52;;;16.40;;
13347;SDS011;6743;49.934;9.138;2022-07-30T03:49:03;18.58;;;16.58;;
13347;SDS011;6743;49.934;9.138;2022-07-30T03:51:30;19.77;;;17.65;;
13347;SDS011;6743;49.934;9.138;2022-07-30T03:53:57;19.37;;;16.98;;
13347;SDS011;6743;49.934;9.138;2022-07-30T03:56:23;19.30;;;16.70;;
13347;SDS011;6743;49.934;9.138;2022-07-30T03:58:49;20.52;;;17.90;;
13347;SDS011;6743;49.934;9.138;2022-07-30T04:01:16;22.08;;;18.67;;
13347;SDS011;6743;49.934;9.138;2022-07-30T04:03:42;22.35;;;18.52;;
13347;SDS011;6743;49.934;9.138;2022-07-30T04:06:08;23.05;;;19.15;;
13347;SDS011;6743;49.934;9.138;2022-07-30T04:08:34;22.77;;;18.60;;
13347;SDS011;6743;49.934;9.138;2022-07-30T04:11:00;24.85;;;18.95;;
13347;SDS011;6743;49.934;9.138;2022-07-30T04:13:26;23.42;;;18.45;;
13347;SDS011;6743;49.934;9.138;2022-07-30T04:15:54;26.00;;;20.05;;
13347;SDS011;6743;49.934;9.138;2022-07-30T04:18:26;25.02;;;19.83;;
13347;SDS011;6743;49.934;9.138;2022-07-30T04:20:58;24.90;;;19.33;;
13347;SDS011;6743;49.934;9.138;2022-07-30T04:23:28;24.05;;;19.42;;
13347;SDS011;6743;49.934;9.138;2022-07-30T04:25:54;22.77;;;19.02;;
13347;SDS011;6743;49.934;9.138;2022-07-30T04:28:21;25.45;;;19.95;;
13347;SDS011;6743;49.934;9.138;2022-07-30T04:30:47;20.92;;;18.62;;
13347;SDS011;6743;49.934;9.138;2022-07-30T04:33:13;23.48;;;19.25;;
13347;SDS011;6743;49.934;9.138;2022-07-30T04:35:40;22.33;;;19.33;;
13347;SDS011;6743;49.934;9.138;2022-07-30T04:38:06;23.73;;;20.80;;
13347;SDS011;6743;49.934;9.138;2022-07-30T04:40:34;26.33;;;21.75;;
13347;SDS011;6743;49.934;9.138;2022-07-30T04:43:00;28.60;;;22.02;;
13347;SDS011;6743;49.934;9.138;2022-07-30T04:45:26;28.95;;;22.00;;
13347;SDS011;6743;49.934;9.138;2022-07-30T04:47:52;25.20;;;21.00;;
13347;SDS011;6743;49.934;9.138;2022-07-30T04:50:19;24.15;;;19.67;;
13347;SDS011;6743;49.934;9.138;2022-07-30T04:52:47;25.55;;;21.12;;
13347;SDS011;6743;49.934;9.138;2022-07-30T04:55:14;25.40;;;20.65;;
13347;SDS011;6743;49.934;9.138;2022-07-30T04:57:42;23.87;;;18.15;;
13347;SDS011;6743;49.934;9.138;2022-07-30T05:00:11;25.35;;;21.10;;
13347;SDS011;6743;49.934;9.138;2022-07-30T05:02:37;27.13;;;19.67;;
13347;SDS011;6743;49.934;9.138;2022-07-30T05:05:06;23.27;;;18.77;;
13347;SDS011;6743;49.934;9.138;2022-07-30T05:07:33;24.27;;;20.25;;
13347;SDS011;6743;49.934;9.138;2022-07-30T05:10:00;25.12;;;20.60;;
13347;SDS011;6743;49.934;9.138;2022-07-30T05:12:30;24.70;;;20.77;;
13347;SDS011;6743;49.934;9.138;2022-07-30T05:14:57;22.50;;;18.92;;
13347;SDS011;6743;49.934;9.138;2022-07-30T05:17:23;24.37;;;20.58;;
13347;SDS011;6743;49.934;9.138;2022-07-30T05:19:49;24.20;;;21.10;;
13347;SDS011;6743;49.934;9.138;2022-07-30T05:22:15;23.67;;;20.48;;
13347;SDS011;6743;49.934;9.138;2022-07-30T05:24:41;23.73;;;20.52;;
13347;SDS011;6743;49.934;9.138;2022-07-30T05:27:08;24.65;;;20.10;;
13347;SDS011;6743;49.934;9.138;2022-07-30T05:29:34;29.27;;;21.73;;
13347;SDS011;6743;49.934;9.138;2022-07-30T05:32:00;29.33;;;23.40;;
13347;SDS011;6743;49.934;9.138;2022-07-30T05:34:26;25.45;;;21.42;;
13347;SDS011;6743;49.934;9.138;2022-07-30T05:36:52;28.65;;;23.52;;
13347;SDS011;6743;49.934;9.138;2022-07-30T05:39:18;29.90;;;24.42;;
13347;SDS011;6743;49.934;9.138;2022-07-30T05:41:44;28.33;;;24.60;;
13347;SDS011;6743;49.934;9.138;2022-07-30T05:44:10;28.90;;;24.75;;
13347;SDS011;6743;49.934;9.138;2022-07-30T05:46:36;30.92;;;25.50;;
13347;SDS011;6743;49.934;9.138;2022-07-30T05:49:02;26.17;;;23.38;;
13347;SDS011;6743;49.934;9.138;2022-07-30T05:51:29;25.85;;;22.05;;
13347;SDS011;6743;49.934;9.138;2022-07-30T05:53:55;25.80;;;23.00;;
13347;SDS011;6743;49.934;9.138;2022-07-30T05:56:21;27.40;;;23.30;;
13347;SDS011;6743;49.934;9.138;2022-07-30T05:58:47;24.20;;;21.75;;
13347;SDS011;6743;49.934;9.138;2022-07-30T06:01:14;24.65;;;21.98;;
13347;SDS011;6743;49.934;9.138;2022-07-30T06:03:40;26.98;;;22.48;;
13347;SDS011;6743;49.934;9.138;2022-07-30T06:06:06;23.27;;;20.88;;
13347;SDS011;6743;49.934;9.138;2022-07-30T06:08:32;22.23;;;19.75;;
13347;SDS011;6743;49.934;9.138;2022-07-30T06:10:58;22.67;;;19.75;;
13347;SDS011;6743;49.934;9.138;2022-07-30T06:13:24;23.25;;;20.75;;
13347;SDS011;6743;49.934;9.138;2022-07-30T06:15:51;24.70;;;22.00;;
13347;SDS011;6743;49.934;9.138;2022-07-30T06:18:18;24.67;;;21.08;;
13347;SDS011;6743;49.934;9.138;2022-07-30T06:20:44;22.00;;;19.70;;
13347;SDS011;6743;49.934;9.138;2022-07-30T06:23:10;21.42;;;19.23;;
13347;SDS011;6743;49.934;9.138;2022-07-30T06:25:36;21.65;;;18.55;;
13347;SDS011;6743;49.934;9.138;2022-07-30T06:28:02;22.27;;;20.08;;
13347;SDS011;6743;49.934;9.138;2022-07-30T06:30:29;21.00;;;18.60;;
13347;SDS011;6743;49.934;9.138;2022-07-30T06:32:55;22.42;;;20.05;;
13347;SDS011;6743;49.934;9.138;2022-07-30T06:35:22;21.58;;;19.50;;
13347;SDS011;6743;49.934;9.138;2022-07-30T06:37:48;20.95;;;18.85;;
13347;SDS011;6743;49.934;9.138;2022-07-30T06:40:14;22.37;;;19.85;;
13347;SDS011;6743;49.934;9.138;2022-07-30T06:42:39;20.35;;;18.30;;
13347;SDS011;6743;49.934;9.138;2022-07-30T06:45:06;20.25;;;18.25;;
13347;SDS011;6743;49.934;9.138;2022-07-30T06:47:33;21.50;;;19.30;;
13347;SDS011;6743;49.934;9.138;2022-07-30T06:49:59;19.45;;;17.55;;
13347;SDS011;6743;49.934;9.138;2022-07-30T06:52:26;19.95;;;18.02;;
13347;SDS011;6743;49.934;9.138;2022-07-30T06:54:52;19.52;;;17.73;;
13347;SDS011;6743;49.934;9.138;2022-07-30T06:57:18;19.25;;;17.35;;
13347;SDS011;6743;49.934;9.138;2022-07-30T06:59:44;19.55;;;17.52;;
13347;SDS011;6743;49.934;9.138;2022-07-30T07:02:10;20.02;;;18.08;;
13347;SDS011;6743;49.934;9.138;2022-07-30T07:04:36;21.98;;;19.02;;
13347;SDS011;6743;49.934;9.138;2022-07-30T07:07:02;17.75;;;15.85;;
13347;SDS011;6743;49.934;9.138;2022-07-30T07:09:29;17.83;;;16.02;;
13347;SDS011;6743;49.934;9.138;2022-07-30T07:11:55;19.25;;;16.95;;
13347;SDS011;6743;49.934;9.138;2022-07-30T07:14:21;18.90;;;17.10;;
13347;SDS011;6743;49.934;9.138;2022-07-30T07:16:47;18.48;;;16.58;;
13347;SDS011;6743;49.934;9.138;2022-07-30T07:19:13;18.40;;;16.70;;
13347;SDS011;6743;49.934;9.138;2022-07-30T07:21:40;18.73;;;16.80;;
13347;SDS011;6743;49.934;9.138;2022-07-30T07:24:06;18.83;;;17.12;;
13347;SDS011;6743;49.934;9.138;2022-07-30T07:26:33;18.17;;;16.45;;
13347;SDS011;6743;49.934;9.138;2022-07-30T07:28:59;17.42;;;15.82;;
13347;SDS011;6743;49.934;9.138;2022-07-30T07:31:26;15.00;;;13.50;;
13347;SDS011;6743;49.934;9.138;2022-07-30T07:33:52;16.27;;;14.70;;
13347;SDS011;6743;49.934;9.138;2022-07-30T07:36:18;15.68;;;14.27;;
13347;SDS011;6743;49.934;9.138;2022-07-30T07:38:44;15.18;;;13.77;;
13347;SDS011;6743;49.934;9.138;2022-07-30T07:41:10;16.15;;;14.65;;
13347;SDS011;6743;49.934;9.138;2022-07-30T07:43:37;16.33;;;14.82;;
13347;SDS011;6743;49.934;9.138;2022-07-30T07:46:04;15.20;;;13.80;;
13347;SDS011;6743;49.934;9.138;2022-07-30T07:48:30;15.45;;;14.10;;
13347;SDS011;6743;49.934;9.138;2022-07-30T07:50:57;14.70;;;13.40;;
13347;SDS011;6743;49.934;9.138;2022-07-30T07:53:23;15.00;;;13.57;;
13347;SDS011;6743;49.934;9.138;2022-07-30T07:55:49;13.30;;;12.10;;
13347;SDS011;6743;49.934;9.138;2022-07-30T07:58:16;15.68;;;13.45;;
13347;SDS011;6743;49.934;9.138;2022-07-30T08:00:43;13.40;;;12.20;;
13347;SDS011;6743;49.934;9.138;2022-07-30T08:03:09;13.32;;;12.07;;
13347;SDS011;6743;49.934;9.138;2022-07-30T08:05:35;14.60;;;13.20;;
13347;SDS011;6743;49.934;9.138;2022-07-30T08:08:01;14.38;;;13.00;;
13347;SDS011;6743;49.934;9.138;2022-07-30T08:10:27;14.43;;;12.98;;
13347;SDS011;6743;49.934;9.138;2022-07-30T08:12:53;13.95;;;12.70;;
13347;SDS011;6743;49.934;9.138;2022-07-30T08:15:19;13.93;;;12.55;;
13347;SDS011;6743;49.934;9.138;2022-07-30T08:17:46;14.90;;;13.60;;
13347;SDS011;6743;49.934;9.138;2022-07-30T08:20:12;14.65;;;13.38;;
13347;SDS011;6743;49.934;9.138;2022-07-30T08:22:39;14.55;;;13.35;;
13347;SDS011;6743;49.934;9.138;2022-07-30T08:25:06;14.68;;;12.35;;
13347;SDS011;6743;49.934;9.138;2022-07-30T08:27:33;12.32;;;11.32;;
13347;SDS011;6743;49.934;9.138;2022-07-30T08:30:01;13.32;;;12.15;;
13347;SDS011;6743;49.934;9.138;2022-07-30T08:32:28;13.68;;;12.52;;
13347;SDS011;6743;49.934;9.138;2022-07-30T08:34:55;14.52;;;13.18;;
13347;SDS011;6743;49.934;9.138;2022-07-30T08:37:21;13.05;;;11.85;;
13347;SDS011;6743;49.934;9.138;2022-07-30T08:39:46;12.90;;;11.70;;
13347;SDS011;6743;49.934;9.138;2022-07-30T08:42:13;12.82;;;11.60;;
13347;SDS011;6743;49.934;9.138;2022-07-30T08:44:39;13.23;;;12.02;;
13347;SDS011;6743;49.934;9.138;2022-07-30T08:47:05;12.32;;;11.30;;
13347;SDS011;6743;49.934;9.138;2022-07-30T08:49:34;12.18;;;11.07;;
13347;SDS011;6743;49.934;9.138;2022-07-30T08:52:03;13.23;;;11.98;;
13347;SDS011;6743;49.934;9.138;2022-07-30T08:54:32;12.30;;;11.23;;
13347;SDS011;6743;49.934;9.138;2022-07-30T08:56:59;11.23;;;10.20;;
13347;SDS011;6743;49.934;9.138;2022-07-30T08:59:25;11.25;;;10.23;;
13347;SDS011;6743;49.934;9.138;2022-07-30T09:01:51;10.95;;;9.90;;
13347;SDS011;6743;49.934;9.138;2022-07-30T09:04:17;11.70;;;10.70;;
13347;SDS011;6743;49.934;9.138;2022-07-30T09:06:43;11.55;;;10.50;;
13347;SDS011;6743;49.934;9.138;2022-07-30T09:09:10;10.43;;;9.45;;
13347;SDS011;6743;49.934;9.138;2022-07-30T09:11:36;10.82;;;9.93;;
13347;SDS011;6743;49.934;9.138;2022-07-30T09:14:06;11.27;;;10.10;;
13347;SDS011;6743;49.934;9.138;2022-07-30T09:16:34;10.60;;;9.70;;
13347;SDS011;6743;49.934;9.138;2022-07-30T09:19:09;10.57;;;9.30;;
13347;SDS011;6743;49.934;9.138;2022-07-30T09:21:37;11.38;;;9.55;;
13347;SDS011;6743;49.934;9.138;2022-07-30T09:24:03;9.43;;;8.57;;
13347;SDS011;6743;49.934;9.138;2022-07-30T09:26:50;11.50;;;10.48;;
13347;SDS011;6743;49.934;9.138;2022-07-30T09:29:18;10.20;;;9.30;;
13347;SDS011;6743;49.934;9.138;2022-07-30T09:31:51;10.10;;;9.15;;
13347;SDS011;6743;49.934;9.138;2022-07-30T09:34:23;10.90;;;9.98;;
13347;SDS011;6743;49.934;9.138;2022-07-30T09:36:55;9.48;;;8.65;;
13347;SDS011;6743;49.934;9.138;2022-07-30T09:39:27;9.60;;;8.80;;
13347;SDS011;6743;49.934;9.138;2022-07-30T09:41:55;8.55;;;7.78;;
13347;SDS011;6743;49.934;9.138;2022-07-30T09:44:22;7.70;;;7.10;;
13347;SDS011;6743;49.934;9.138;2022-07-30T09:46:49;8.20;;;7.50;;
13347;SDS011;6743;49.934;9.138;2022-07-30T09:49:16;7.43;;;6.82;;
13347;SDS011;6743;49.934;9.138;2022-07-30T09:51:44;6.93;;;6.32;;
13347;SDS011;6743;49.934;9.138;2022-07-30T09:54:10;7.65;;;6.87;;
13347;SDS011;6743;49.934;9.138;2022-07-30T09:56:36;6.87;;;6.28;;
13347;SDS011;6743;49.934;9.138;2022-07-30T09:59:04;8.88;;;6.43;;
13347;SDS011;6743;49.934;9.138;2022-07-30T10:04:21;6.37;;;5.70;;
13347;SDS011;6743;49.934;9.138;2022-07-30T10:06:48;7.07;;;6.37;;
13347;SDS011;6743;49.934;9.138;2022-07-30T10:09:23;7.97;;;6.25;;
13347;SDS011;6743;49.934;9.138;2022-07-30T10:11:49;8.80;;;6.37;;
13347;SDS011;6743;49.934;9.138;2022-07-30T10:14:16;5.95;;;5.35;;
13347;SDS011;6743;49.934;9.138;2022-07-30T10:16:43;6.10;;;5.53;;
13347;SDS011;6743;49.934;9.138;2022-07-30T10:19:10;7.80;;;6.15;;
13347;SDS011;6743;49.934;9.138;2022-07-30T10:21:36;6.90;;;5.57;;
13347;SDS011;6743;49.934;9.138;2022-07-30T10:24:03;10.23;;;5.93;;
13347;SDS011;6743;49.934;9.138;2022-07-30T10:26:31;7.22;;;6.62;;
13347;SDS011;6743;49.934;9.138;2022-07-30T10:28:58;6.35;;;5.85;;
13347;SDS011;6743;49.934;9.138;2022-07-30T10:31:26;6.87;;;6.28;;
13347;SDS011;6743;49.934;9.138;2022-07-30T10:33:52;7.05;;;6.45;;
13347;SDS011;6743;49.934;9.138;2022-07-30T10:36:19;9.73;;;6.40;;
13347;SDS011;6743;49.934;9.138;2022-07-30T10:38:46;6.62;;;6.12;;
13347;SDS011;6743;49.934;9.138;2022-07-30T10:41:15;8.65;;;6.05;;
13347;SDS011;6743;49.934;9.138;2022-07-30T10:43:54;7.65;;;6.80;;
13347;SDS011;6743;49.934;9.138;2022-07-30T10:46:49;7.12;;;6.35;;
13347;SDS011;6743;49.934;9.138;2022-07-30T10:49:25;6.68;;;6.07;;
13347;SDS011;6743;49.934;9.138;2022-07-30T10:51:51;7.97;;;5.53;;
13347;SDS011;6743;49.934;9.138;2022-07-30T10:54:33;8.57;;;6.37;;
13347;SDS011;6743;49.934;9.138;2022-07-30T10:57:05;8.55;;;7.65;;
13347;SDS011;6743;49.934;9.138;2022-07-30T11:02:36;7.97;;;7.18;;
13347;SDS011;6743;49.934;9.138;2022-07-30T11:05:21;9.20;;;6.78;;
13347;SDS011;6743;49.934;9.138;2022-07-30T11:07:49;7.95;;;7.15;;
13347;SDS011;6743;49.934;9.138;2022-07-30T11:13:00;7.35;;;6.75;;
13347;SDS011;6743;49.934;9.138;2022-07-30T11:15:50;7.55;;;6.78;;
13347;SDS011;6743;49.934;9.138;2022-07-30T11:18:19;6.60;;;6.00;;
13347;SDS011;6743;49.934;9.138;2022-07-30T11:23:39;7.65;;;7.03;;
13347;SDS011;6743;49.934;9.138;2022-07-30T11:26:07;7.40;;;6.70;;
13347;SDS011;6743;49.934;9.138;2022-07-30T11:28:34;7.68;;;7.03;;
13347;SDS011;6743;49.934;9.138;2022-07-30T11:31:02;8.02;;;7.22;;
13347;SDS011;6743;49.934;9.138;2022-07-30T11:33:29;6.70;;;5.95;;
13347;SDS011;6743;49.934;9.138;2022-07-30T11:36:05;6.90;;;6.28;;
13347;SDS011;6743;49.934;9.138;2022-07-30T11:41:18;6.72;;;6.12;;
13347;SDS011;6743;49.934;9.138;2022-07-30T11:43:45;7.05;;;5.97;;
13347;SDS011;6743;49.934;9.138;2022-07-30T11:46:11;6.28;;;5.75;;
13347;SDS011;6743;49.934;9.138;2022-07-30T11:48:40;5.93;;;5.20;;
13347;SDS011;6743;49.934;9.138;2022-07-30T11:51:07;6.07;;;5.50;;
13347;SDS011;6743;49.934;9.138;2022-07-30T11:53:34;6.90;;;6.18;;
13347;SDS011;6743;49.934;9.138;2022-07-30T11:56:00;6.93;;;5.55;;
13347;SDS011;6743;49.934;9.138;2022-07-30T11:58:28;6.47;;;5.70;;
13347;SDS011;6743;49.934;9.138;2022-07-30T12:00:57;6.43;;;5.82;;
13347;SDS011;6743;49.934;9.138;2022-07-30T12:03:25;4.70;;;4.40;;
13347;SDS011;6743;49.934;9.138;2022-07-30T12:05:53;6.72;;;5.37;;
13347;SDS011;6743;49.934;9.138;2022-07-30T12:08:20;6.18;;;5.55;;
13347;SDS011;6743;49.934;9.138;2022-07-30T12:10:54;8.65;;;5.50;;
13347;SDS011;6743;49.934;9.138;2022-07-30T12:13:22;5.93;;;5.43;;
13347;SDS011;6743;49.934;9.138;2022-07-30T12:15:48;7.20;;;5.75;;
13347;SDS011;6743;49.934;9.138;2022-07-30T12:18:22;8.30;;;6.07;;
13347;SDS011;6743;49.934;9.138;2022-07-30T12:20:51;5.87;;;5.35;;
13347;SDS011;6743;49.934;9.138;2022-07-30T12:23:19;5.57;;;5.07;;
13347;SDS011;6743;49.934;9.138;2022-07-30T12:25:45;6.15;;;5.60;;
13347;SDS011;6743;49.934;9.138;2022-07-30T12:28:17;5.65;;;5.20;;
13347;SDS011;6743;49.934;9.138;2022-07-30T12:30:44;6.60;;;5.37;;
13347;SDS011;6743;49.934;9.138;2022-07-30T12:33:11;5.25;;;4.85;;
13347;SDS011;6743;49.934;9.138;2022-07-30T12:35:40;5.62;;;4.95;;
13347;SDS011;6743;49.934;9.138;2022-07-30T12:38:08;7.90;;;5.60;;
13347;SDS011;6743;49.934;9.138;2022-07-30T12:40:39;6.10;;;4.70;;
13347;SDS011;6743;49.934;9.138;2022-07-30T12:43:15;5.05;;;4.62;;
13347;SDS011;6743;49.934;9.138;2022-07-30T12:45:41;4.47;;;4.15;;
13347;SDS011;6743;49.934;9.138;2022-07-30T12:48:10;4.93;;;4.53;;
13347;SDS011;6743;49.934;9.138;2022-07-30T12:50:36;6.60;;;4.57;;
13347;SDS011;6743;49.934;9.138;2022-07-30T12:53:02;5.05;;;4.37;;
13347;SDS011;6743;49.934;9.138;2022-07-30T12:55:30;5.62;;;4.57;;
13347;SDS011;6743;49.934;9.138;2022-07-30T12:57:58;4.62;;;4.20;;
13347;SDS011;6743;49.934;9.138;2022-07-30T13:00:26;4.82;;;4.43;;
13347;SDS011;6743;49.934;9.138;2022-07-30T13:02:53;4.85;;;4.50;;
13347;SDS011;6743;49.934;9.138;2022-07-30T13:05:20;4.70;;;4.22;;
13347;SDS011;6743;49.934;9.138;2022-07-30T13:08:06;5.57;;;4.32;;
13347;SDS011;6743;49.934;9.138;2022-07-30T13:10:32;4.68;;;4.28;;
13347;SDS011;6743;49.934;9.138;2022-07-30T13:12:58;4.87;;;3.60;;
13347;SDS011;6743;49.934;9.138;2022-07-30T13:15:26;3.25;;;3.05;;
13347;SDS011;6743;49.934;9.138;2022-07-30T13:17:52;3.30;;;3.00;;
13347;SDS011;6743;49.934;9.138;2022-07-30T13:20:18;2.90;;;2.70;;
13347;SDS011;6743;49.934;9.138;2022-07-30T13:22:45;3.03;;;2.83;;
13347;SDS011;6743;49.934;9.138;2022-07-30T13:25:11;2.97;;;2.70;;
13347;SDS011;6743;49.934;9.138;2022-07-30T13:27:38;3.12;;;2.83;;
13347;SDS011;6743;49.934;9.138;2022-07-30T13:30:04;3.30;;;3.00;;
13347;SDS011;6743;49.934;9.138;2022-07-30T13:32:31;3.03;;;2.72;;
13347;SDS011;6743;49.934;9.138;2022-07-30T13:34:57;3.10;;;2.90;;
13347;SDS011;6743;49.934;9.138;2022-07-30T13:37:23;3.28;;;3.00;;
13347;SDS011;6743;49.934;9.138;2022-07-30T13:39:49;3.08;;;2.90;;
13347;SDS011;6743;49.934;9.138;2022-07-30T13:42:15;3.15;;;2.85;;
13347;SDS011;6743;49.934;9.138;2022-07-30T13:44:41;3.60;;;3.03;;
13347;SDS011;6743;49.934;9.138;2022-07-30T13:47:07;2.75;;;2.55;;
13347;SDS011;6743;49.934;9.138;2022-07-30T13:49:33;4.55;;;2.78;;
13347;SDS011;6743;49.934;9.138;2022-07-30T13:52:00;3.12;;;2.92;;
13347;SDS011;6743;49.934;9.138;2022-07-30T13:54:26;2.62;;;2.53;;
13347;SDS011;6743;49.934;9.138;2022-07-30T13:56:54;4.57;;;2.97;;
13347;SDS011;6743;49.934;9.138;2022-07-30T13:59:20;2.80;;;2.53;;
13347;SDS011;6743;49.934;9.138;2022-07-30T14:01:47;2.60;;;2.40;;
13347;SDS011;6743;49.934;9.138;2022-07-30T14:04:13;2.53;;;2.37;;
13347;SDS011;6743;49.934;9.138;2022-07-30T14:06:39;2.72;;;2.53;;
13347;SDS011;6743;49.934;9.138;2022-07-30T14:09:05;2.70;;;2.50;;
13347;SDS011;6743;49.934;9.138;2022-07-30T14:11:31;3.20;;;2.50;;
13347;SDS011;6743;49.934;9.138;2022-07-30T14:13:59;3.03;;;2.42;;
13347;SDS011;6743;49.934;9.138;2022-07-30T14:16:25;4.00;;;2.47;;
13347;SDS011;6743;49.934;9.138;2022-07-30T14:18:52;2.65;;;2.25;;
13347;SDS011;6743;49.934;9.138;2022-07-30T14:21:18;3.28;;;2.28;;
13347;SDS011;6743;49.934;9.138;2022-07-30T14:23:44;3.05;;;2.75;;
13347;SDS011;6743;49.934;9.138;2022-07-30T14:26:10;3.20;;;2.40;;
13347;SDS011;6743;49.934;9.138;2022-07-30T14:28:36;2.85;;;2.60;;
13347;SDS011;6743;49.934;9.138;2022-07-30T14:31:02;3.67;;;2.35;;
13347;SDS011;6743;49.934;9.138;2022-07-30T14:33:28;2.47;;;2.20;;
13347;SDS011;6743;49.934;9.138;2022-07-30T14:35:55;2.12;;;2.03;;
13347;SDS011;6743;49.934;9.138;2022-07-30T14:38:21;3.20;;;2.80;;
13347;SDS011;6743;49.934;9.138;2022-07-30T14:40:47;2.87;;;2.20;;
13347;SDS011;6743;49.934;9.138;2022-07-30T14:43:13;2.50;;;2.30;;
13347;SDS011;6743;49.934;9.138;2022-07-30T14:45:39;2.33;;;2.10;;
13347;SDS011;6743;49.934;9.138;2022-07-30T14:48:05;2.90;;;2.22;;
13347;SDS011;6743;49.934;9.138;2022-07-30T14:50:31;3.85;;;2.25;;
13347;SDS011;6743;49.934;9.138;2022-07-30T14:52:57;2.22;;;2.12;;
13347;SDS011;6743;49.934;9.138;2022-07-30T14:55:23;2.67;;;2.47;;
13347;SDS011;6743;49.934;9.138;2022-07-30T14:57:49;3.03;;;2.35;;
13347;SDS011;6743;49.934;9.138;2022-07-30T15:00:15;2.35;;;2.15;;
13347;SDS011;6743;49.934;9.138;2022-07-30T15:02:42;2.50;;;2.30;;
13347;SDS011;6743;49.934;9.138;2022-07-30T15:05:08;5.05;;;2.35;;